Terminal Aerodrome Forecast
Issued by NWS Cleveland, OH

Home | Current Version | Previous Version | Text Only | Print | Product List | Glossary On
Versions: 1 2 3 4 5 6 7 8 9 10 11 12 13 14
000
FTUS41 KCLE 211700
TAFCAK
TAF
KCAK 211730Z 2118/2218 33008KT P6SM BKN045 OVC100
     FM220300 24006KT P6SM SCT100
     FM221100 25007KT P6SM VCSH BKN050
     FM221500 29010KT P6SM SCT050=

USA.gov is the U.S. government's official web portal to all federal, state and local government web resources and services.